Time;durP1;ratioP1;P1;durP2;ratioP2;P2;SDS_P1;SDS_P2;PMS_P1;PMS_P2;Temp;Humidity;BMP_temperature;BMP_pressure;BME280_temperature;BME280_humidity;BME280_pressure;Samples;Min_cycle;Max_cycle;Signal;HPM_P1;HPM_P2
2023/06/24 05:34:11;;;;;;;5.25;3.75;;;17.80;84.10;;;;;;1432453;23;20517;-78
2023/06/24 05:36:41;;;;;;;3.97;3.58;;;17.80;82.50;;;;;;4993518;28;20240;-82
2023/06/24 05:39:08;;;;;;;4.68;3.70;;;18.00;80.80;;;;;;4995549;28;20219;-87
2023/06/24 05:41:35;;;;;;;4.22;3.50;;;18.20;79.50;;;;;;4980505;28;20212;-84
2023/06/24 05:44:03;;;;;;;4.05;3.75;;;18.40;78.80;;;;;;4976919;28;20239;-85
2023/06/24 05:46:30;;;;;;;3.95;3.53;;;18.50;79.80;;;;;;4993384;28;20372;-85
2023/06/24 05:48:57;;;;;;;3.90;3.50;;;18.50;78.40;;;;;;4995002;28;20188;-87
2023/06/24 05:51:24;;;;;;;3.75;3.45;;;18.60;73.80;;;;;;4994091;28;20203;-84
2023/06/24 05:53:52;;;;;;;4.32;3.67;;;18.80;73.60;;;;;;4993144;28;20208;-87
2023/06/24 05:56:19;;;;;;;3.75;3.45;;;19.10;72.30;;;;;;4994714;28;20204;-83
2023/06/24 05:58:46;;;;;;;4.07;3.65;;;19.10;70.90;;;;;;4977528;28;20230;-83
2023/06/24 06:01:13;;;;;;;5.88;3.60;;;19.20;66.30;;;;;;4994570;28;20206;-85
2023/06/24 06:03:39;;;;;;;3.97;3.58;;;19.20;68.30;;;;;;4993402;28;20202;-84
2023/06/24 06:06:06;;;;;;;4.60;3.60;;;19.20;63.80;;;;;;4977986;28;20204;-84
2023/06/24 06:08:33;;;;;;;4.97;3.35;;;19.30;63.20;;;;;;4975429;28;20227;-86
2023/06/24 06:11:02;;;;;;;4.05;3.65;;;19.40;63.90;;;;;;4985746;28;20243;-86
2023/06/24 06:13:29;;;;;;;4.00;3.60;;;19.40;59.80;;;;;;4986353;28;20653;-87
2023/06/24 06:15:56;;;;;;;3.80;3.50;;;19.60;58.40;;;;;;4986578;28;20212;-86
2023/06/24 06:18:23;;;;;;;3.92;3.47;;;19.70;56.90;;;;;;4984767;28;20251;-84
2023/06/24 06:20:50;;;;;;;4.13;3.65;;;19.70;60.30;;;;;;4979659;28;20565;-84
2023/06/24 06:23:17;;;;;;;3.70;3.40;;;19.80;55.80;;;;;;4982560;28;20204;-82
2023/06/24 06:25:44;;;;;;;5.35;3.60;;;19.90;55.80;;;;;;4980073;28;20208;-87
2023/06/24 06:28:12;;;;;;;6.60;3.70;;;19.90;55.80;;;;;;4985243;28;20207;-86
2023/06/24 06:30:40;;;;;;;3.53;3.20;;;19.70;49.00;;;;;;4982052;28;20208;-86
2023/06/24 06:33:07;;;;;;;3.78;3.47;;;19.70;49.60;;;;;;4979234;28;20570;-84
2023/06/24 06:35:33;;;;;;;3.90;3.40;;;19.70;51.80;;;;;;4958705;28;20226;-85
2023/06/24 06:38:00;;;;;;;4.30;3.63;;;19.80;50.60;;;;;;4975558;28;20196;-84
2023/06/24 06:40:28;;;;;;;5.80;3.47;;;20.00;50.90;;;;;;4982871;28;20637;-86
2023/06/24 06:42:55;;;;;;;4.10;3.53;;;19.90;47.10;;;;;;4976308;28;20208;-86
2023/06/24 06:45:23;;;;;;;3.63;3.33;;;19.90;42.90;;;;;;4979951;28;20239;-85
2023/06/24 06:47:51;;;;;;;3.45;3.15;;;19.80;45.00;;;;;;4987825;28;20200;-87
2023/06/24 06:50:18;;;;;;;3.30;3.00;;;19.80;44.00;;;;;;4991708;28;20200;-89
2023/06/24 06:52:45;;;;;;;3.10;2.83;;;20.10;37.50;;;;;;4987529;28;20204;-86
2023/06/24 06:55:12;;;;;;;3.75;3.40;;;20.30;36.40;;;;;;4971375;28;20204;-88
2023/06/24 06:57:39;;;;;;;3.88;3.38;;;20.50;38.40;;;;;;4964200;28;20196;-87
2023/06/24 07:00:07;;;;;;;3.85;3.42;;;20.60;38.90;;;;;;4980074;28;20223;-84
2023/06/24 07:02:35;;;;;;;3.65;2.90;;;20.70;34.20;;;;;;4982199;28;20196;-88
2023/06/24 07:05:03;;;;;;;3.17;2.88;;;20.80;32.70;;;;;;4961703;28;20200;-84
2023/06/24 07:07:30;;;;;;;2.97;2.75;;;20.80;32.70;;;;;;4989573;28;20222;-82
2023/06/24 07:09:57;;;;;;;3.20;2.90;;;21.00;32.90;;;;;;4988128;28;20526;-85
2023/06/24 07:12:24;;;;;;;3.33;3.03;;;21.30;27.10;;;;;;4974043;28;20243;-84
2023/06/24 07:14:51;;;;;;;3.95;2.90;;;21.30;28.70;;;;;;4982706;28;20203;-85
2023/06/24 07:17:18;;;;;;;4.28;3.05;;;21.10;27.90;;;;;;4972950;28;20204;-84
2023/06/24 07:19:46;;;;;;;4.15;3.13;;;20.90;29.80;;;;;;4983707;28;20560;-82
2023/06/24 07:22:13;;;;;;;3.63;2.90;;;20.90;30.60;;;;;;4983282;28;20208;-83
2023/06/24 07:24:40;;;;;;;3.33;3.05;;;21.20;27.50;;;;;;4982405;28;20196;-85
2023/06/24 07:27:07;;;;;;;3.17;2.88;;;21.70;28.00;;;;;;4980720;28;20197;-86
2023/06/24 07:29:34;;;;;;;3.47;3.08;;;21.80;26.50;;;;;;4961016;28;20206;-82
2023/06/24 07:32:01;;;;;;;3.33;3.00;;;22.10;26.00;;;;;;4986738;28;20662;-81
2023/06/24 07:34:30;;;;;;;2.83;2.60;;;22.40;23.70;;;;;;4983741;28;20192;-84
2023/06/24 07:36:58;;;;;;;3.53;3.00;;;22.50;22.70;;;;;;4982460;28;20731;-84
2023/06/24 07:39:25;;;;;;;3.63;2.90;;;22.40;22.30;;;;;;4984166;28;20215;-83
2023/06/24 07:41:52;;;;;;;3.58;2.95;;;22.00;23.90;;;;;;4982967;28;20196;-84
2023/06/24 07:44:19;;;;;;;3.65;2.80;;;22.10;21.80;;;;;;4987299;28;20212;-84
2023/06/24 07:46:46;;;;;;;4.22;2.85;;;21.90;21.90;;;;;;4987890;28;20200;-82
2023/06/24 07:49:13;;;;;;;3.45;2.75;;;21.80;21.80;;;;;;4977539;28;20204;-83
2023/06/24 07:51:40;;;;;;;5.15;3.20;;;21.90;21.90;;;;;;4986818;28;20200;-84
2023/06/24 07:54:08;;;;;;;3.13;2.80;;;22.00;21.90;;;;;;4981976;28;20207;-84
2023/06/24 07:56:35;;;;;;;3.03;2.72;;;22.20;20.80;;;;;;4983086;28;20247;-82
2023/06/24 07:59:02;;;;;;;3.63;2.90;;;22.50;20.20;;;;;;4986884;28;20222;-82
2023/06/24 08:01:29;;;;;;;3.53;3.17;;;22.60;20.70;;;;;;4984865;28;20207;-85
2023/06/24 08:03:56;;;;;;;3.88;3.15;;;22.50;17.80;;;;;;4989038;28;20196;-84
2023/06/24 08:06:24;;;;;;;4.82;3.08;;;22.60;19.10;;;;;;4978400;28;20223;-84
2023/06/24 08:08:51;;;;;;;19.42;5.25;;;22.20;19.90;;;;;;4990494;28;20206;-83
2023/06/24 08:11:19;;;;;;;3.50;3.20;;;21.90;21.90;;;;;;4960939;28;20200;-84
2023/06/24 08:13:46;;;;;;;4.47;2.85;;;22.10;22.00;;;;;;4988439;28;20200;-81
2023/06/24 08:16:13;;;;;;;5.40;3.13;;;22.50;19.40;;;;;;4984177;28;20208;-84
2023/06/24 08:18:40;;;;;;;25.73;23.10;;;22.80;21.50;;;;;;4988442;28;20216;-85
2023/06/24 08:21:06;;;;;;;3.53;3.20;;;23.20;20.50;;;;;;4991678;28;20206;-85
2023/06/24 08:23:33;;;;;;;4.93;3.97;;;23.40;20.40;;;;;;4977501;28;20235;-83
2023/06/24 08:26:00;;;;;;;4.03;3.60;;;24.00;17.60;;;;;;4981415;28;20672;-84
2023/06/24 08:28:29;;;;;;;3.60;3.30;;;24.90;15.80;;;;;;4983927;28;20200;-84
2023/06/24 08:30:56;;;;;;;4.63;3.10;;;25.50;15.30;;;;;;4972506;28;20218;-84
2023/06/24 08:33:22;;;;;;;3.80;3.50;;;25.90;14.60;;;;;;4986532;28;20200;-85
2023/06/24 08:35:49;;;;;;;4.07;3.45;;;26.50;12.10;;;;;;4991252;28;20214;-85
2023/06/24 08:38:18;;;;;;;3.97;3.58;;;26.50;12.60;;;;;;4983396;28;20204;-83
2023/06/24 08:40:46;;;;;;;3.72;3.42;;;25.70;14.50;;;;;;4983285;28;20269;-84
2023/06/24 08:43:13;;;;;;;3.38;3.10;;;24.60;14.30;;;;;;4989848;28;20207;-84
2023/06/24 08:45:42;;;;;;;3.70;3.40;;;24.30;17.60;;;;;;4986133;28;20200;-84
2023/06/24 08:48:09;;;;;;;4.05;3.58;;;25.10;14.20;;;;;;4988872;28;20199;-85
2023/06/24 08:50:41;;;;;;;3.70;3.40;;;26.00;14.60;;;;;;4987862;28;20207;-83
2023/06/24 08:53:09;;;;;;;3.95;3.60;;;25.30;14.10;;;;;;4979596;28;20211;-85
2023/06/24 08:55:42;;;;;;;17.48;15.98;;;25.00;15.30;;;;;;4989940;28;20199;-82
2023/06/24 08:58:09;;;;;;;20.90;19.10;;;24.90;14.20;;;;;;4986344;28;20200;-85
2023/06/24 09:00:36;;;;;;;4.05;3.65;;;24.60;15.40;;;;;;4987077;28;20218;-85
2023/06/24 09:03:05;;;;;;;3.65;3.35;;;24.90;14.20;;;;;;4974870;28;20239;-85
2023/06/24 09:05:32;;;;;;;3.95;3.58;;;25.00;14.20;;;;;;4969941;28;20630;-82
2023/06/24 09:07:58;;;;;;;3.80;3.40;;;25.00;14.20;;;;;;4989536;28;20567;-83
2023/06/24 09:10:33;;;;;;;3.85;3.55;;;25.70;14.50;;;;;;4982132;28;20218;-85
2023/06/24 09:13:00;;;;;;;5.50;4.03;;;26.50;12.10;;;;;;4969594;28;20215;-84
2023/06/24 09:15:31;;;;;;;4.00;3.65;;;26.70;11.60;;;;;;4988099;28;20207;-84
2023/06/24 09:18:00;;;;;;;4.35;3.75;;;26.50;14.90;;;;;;4986754;28;20703;-85
2023/06/24 09:20:28;;;;;;;4.47;4.07;;;26.90;12.60;;;;;;4979616;28;20700;-84
2023/06/24 09:23:00;;;;;;;4.85;4.43;;;27.30;11.00;;;;;;4986368;28;20301;-82
2023/06/24 09:25:26;;;;;;;4.55;4.15;;;27.40;10.20;;;;;;4980194;28;20207;-85
2023/06/24 09:27:55;;;;;;;11.70;10.60;;;26.40;12.30;;;;;;4988851;28;20203;-87
2023/06/24 09:30:24;;;;;;;6.13;5.53;;;26.50;13.60;;;;;;4988776;28;20207;-83
2023/06/24 09:32:52;;;;;;;5.03;4.53;;;27.00;12.30;;;;;;4981164;28;20675;-84
2023/06/24 09:35:21;;;;;;;4.97;4.47;;;27.20;11.70;;;;;;4989156;28;20208;-84
2023/06/24 09:37:53;;;;;;;4.78;4.38;;;26.60;11.70;;;;;;4987143;28;20287;-85
2023/06/24 09:40:20;;;;;;;5.90;4.55;;;26.00;13.70;;;;;;4982112;28;20282;-85
2023/06/24 09:42:52;;;;;;;4.38;3.65;;;26.40;11.80;;;;;;4984655;28;20250;-84
2023/06/24 09:45:22;;;;;;;4.70;4.13;;;26.50;12.70;;;;;;4986578;28;20203;-83
2023/06/24 09:47:49;;;;;;;4.28;3.97;;;25.60;13.30;;;;;;4988511;28;20676;-86
2023/06/24 09:50:15;;;;;;;5.45;4.20;;;24.80;14.10;;;;;;4988552;28;20222;-83
2023/06/24 09:52:44;;;;;;;4.75;4.10;;;23.90;16.00;;;;;;4981059;28;20196;-82
2023/06/24 09:55:13;;;;;;;5.38;4.28;;;23.30;17.30;;;;;;4984830;28;20641;-82
2023/06/24 09:57:43;;;;;;;4.32;3.90;;;22.90;19.40;;;;;;4989047;28;20276;-81
2023/06/24 10:00:12;;;;;;;5.32;4.50;;;23.00;19.90;;;;;;4989140;28;20223;-81
2023/06/24 10:02:39;;;;;;;4.20;3.80;;;23.90;15.30;;;;;;4982569;28;20278;-81
2023/06/24 10:05:06;;;;;;;4.00;3.65;;;24.60;16.30;;;;;;4981061;28;20230;-84
2023/06/24 10:07:35;;;;;;;4.85;4.18;;;25.30;14.30;;;;;;4988292;28;20202;-83
2023/06/24 10:10:03;;;;;;;5.22;4.05;;;25.20;14.20;;;;;;4969806;28;20645;-84
2023/06/24 10:12:32;;;;;;;5.50;4.13;;;24.60;15.10;;;;;;4983609;28;20292;-84
2023/06/24 10:14:59;;;;;;;4.07;3.78;;;24.30;14.90;;;;;;4981738;28;20199;-81
2023/06/24 10:17:26;;;;;;;4.35;3.53;;;23.90;15.70;;;;;;4984284;28;20720;-83
2023/06/24 10:19:54;;;;;;;4.20;3.80;;;24.10;18.30;;;;;;4987435;28;20224;-80
2023/06/24 10:22:23;;;;;;;3.88;3.58;;;25.00;14.20;;;;;;4981760;28;20231;-82
2023/06/24 10:24:52;;;;;;;4.93;4.10;;;25.80;13.60;;;;;;4983246;28;20207;-82
2023/06/24 10:27:21;;;;;;;4.45;4.10;;;26.60;15.80;;;;;;4973309;28;20199;-83
2023/06/24 10:29:50;;;;;;;5.05;4.65;;;26.90;10.70;;;;;;4985306;28;20262;-86
2023/06/24 10:32:19;;;;;;;4.80;4.40;;;27.40;10.50;;;;;;4989000;28;20199;-81
2023/06/24 10:34:47;;;;;;;4.60;4.20;;;27.40;8.50;;;;;;4984094;28;20208;-83
2023/06/24 10:37:20;;;;;;;4.57;4.18;;;27.30;10.00;;;;;;4984559;28;20207;-85
2023/06/24 10:39:52;;;;;;;4.22;3.90;;;27.10;10.10;;;;;;4979047;28;20222;-88
2023/06/24 10:42:41;;;;;;;4.40;3.92;;;26.50;12.40;;;;;;4990850;28;20244;-85
2023/06/24 10:45:18;;;;;;;4.10;3.80;;;25.70;13.30;;;;;;4987246;28;20231;-83
2023/06/24 10:47:46;;;;;;;6.00;4.05;;;25.00;14.20;;;;;;4979568;28;20208;-81
2023/06/24 10:50:15;;;;;;;4.47;4.03;;;24.70;14.00;;;;;;4983768;28;20200;-83
2023/06/24 10:52:43;;;;;;;5.40;4.90;;;25.10;14.30;;;;;;4985373;28;20567;-83
2023/06/24 10:55:10;;;;;;;5.18;4.38;;;25.50;16.80;;;;;;4983482;28;20802;-85
2023/06/24 10:57:37;;;;;;;4.80;4.40;;;25.60;13.60;;;;;;4987246;28;20667;-84
2023/06/24 11:00:07;;;;;;;5.65;5.07;;;25.30;14.30;;;;;;4985178;28;20233;-87
2023/06/24 11:02:36;;;;;;;4.55;4.15;;;24.80;15.00;;;;;;4984982;28;20205;-81
2023/06/24 11:05:04;;;;;;;4.82;4.38;;;24.30;15.70;;;;;;4985654;28;20286;-84
2023/06/24 11:07:34;;;;;;;5.10;4.60;;;24.60;20.90;;;;;;4979465;28;20199;-85
2023/06/24 11:10:04;;;;;;;5.15;4.70;;;25.10;16.40;;;;;;4986808;28;20202;-83
2023/06/24 11:12:33;;;;;;;4.93;4.43;;;25.40;16.40;;;;;;4987526;28;20191;-83
2023/06/24 11:15:01;;;;;;;4.75;4.35;;;25.60;16.00;;;;;;4979542;28;20665;-88
2023/06/24 11:17:28;;;;;;;7.25;4.68;;;25.60;14.50;;;;;;4985341;28;20219;-85
2023/06/24 11:19:58;;;;;;;6.00;4.72;;;25.50;17.70;;;;;;4974967;28;20214;-85
2023/06/24 11:22:26;;;;;;;5.10;4.60;;;25.60;14.40;;;;;;4980529;28;20200;-85
2023/06/24 11:24:53;;;;;;;6.60;4.43;;;25.80;12.90;;;;;;4979620;28;20195;-86
2023/06/24 11:27:26;;;;;;;5.63;4.57;;;26.10;14.70;;;;;;4982400;28;20757;-84
2023/06/24 11:29:54;;;;;;;5.20;4.05;;;26.10;13.80;;;;;;4987137;28;20200;-86
2023/06/24 11:32:21;;;;;;;4.60;4.20;;;26.50;13.80;;;;;;4994121;28;20203;-82
2023/06/24 11:34:48;;;;;;;4.72;4.30;;;26.30;10.90;;;;;;4993179;28;20207;-81
2023/06/24 11:37:19;;;;;;;4.80;4.30;;;25.60;11.80;;;;;;4991384;28;20631;-83
2023/06/24 11:40:01;;;;;;;5.03;4.38;;;25.00;13.40;;;;;;4969311;28;20239;-82
2023/06/24 11:42:29;;;;;;;6.07;4.40;;;24.50;13.90;;;;;;4985779;28;20208;-82
2023/06/24 11:45:00;;;;;;;4.93;4.40;;;24.10;14.30;;;;;;4986943;28;20262;-82
2023/06/24 11:47:27;;;;;;;4.90;4.30;;;23.80;13.40;;;;;;4991940;28;20744;-84
2023/06/24 11:49:57;;;;;;;4.78;4.38;;;23.60;14.80;;;;;;4995047;28;20754;-84
2023/06/24 11:52:34;;;;;;;5.00;4.50;;;23.40;16.00;;;;;;4990830;28;20196;-83
2023/06/24 11:55:01;;;;;;;4.20;3.80;;;23.20;16.30;;;;;;4991067;28;20193;-84
2023/06/24 11:57:50;;;;;;;4.88;4.38;;;23.00;17.00;;;;;;4964767;28;20196;-85
2023/06/24 12:00:17;;;;;;;4.50;4.10;;;23.20;15.80;;;;;;4985048;28;20305;-83
2023/06/24 12:02:44;;;;;;;4.43;4.03;;;23.20;17.20;;;;;;4981692;28;20352;-85
2023/06/24 12:05:11;;;;;;;4.45;4.05;;;23.40;18.10;;;;;;4982686;28;20675;-86
2023/06/24 12:07:40;;;;;;;4.72;4.32;;;23.40;17.60;;;;;;4989357;28;20208;-86
2023/06/24 12:10:09;;;;;;;4.78;3.85;;;23.90;16.50;;;;;;4972387;28;20274;-84
2023/06/24 12:12:36;;;;;;;7.10;4.60;;;24.50;16.60;;;;;;4991783;28;20200;-86
2023/06/24 12:15:03;;;;;;;4.65;4.15;;;25.10;14.20;;;;;;4981480;28;20674;-85
2023/06/24 12:17:30;;;;;;;7.22;4.30;;;25.10;14.20;;;;;;4989668;28;20228;-85
2023/06/24 12:19:57;;;;;;;4.28;3.90;;;25.10;14.10;;;;;;4963062;28;20274;-85
2023/06/24 12:22:24;;;;;;;4.43;3.83;;;25.00;14.20;;;;;;4989734;28;20223;-82
2023/06/24 12:24:52;;;;;;;4.60;3.95;;;24.90;13.70;;;;;;4990205;28;20211;-84
2023/06/24 12:27:19;;;;;;;4.07;3.75;;;24.70;11.80;;;;;;4972449;28;20205;-84
2023/06/24 12:29:46;;;;;;;4.75;4.13;;;25.10;11.60;;;;;;4988298;28;20247;-85
2023/06/24 12:32:13;;;;;;;4.30;3.90;;;25.60;11.60;;;;;;4989932;28;20196;-86
2023/06/24 12:34:40;;;;;;;5.00;3.85;;;25.90;14.60;;;;;;4985308;28;20207;-85
2023/06/24 12:37:07;;;;;;;4.30;3.90;;;25.60;11.80;;;;;;4988839;28;21121;-85
2023/06/24 12:39:34;;;;;;;4.75;3.92;;;25.50;13.50;;;;;;4964193;28;20193;-85
2023/06/24 12:42:03;;;;;;;4.78;3.70;;;25.40;12.40;;;;;;4944311;28;20220;-82
2023/06/24 12:44:29;;;;;;;5.15;3.97;;;25.50;15.30;;;;;;4986153;28;20204;-85
2023/06/24 12:46:56;;;;;;;5.68;3.72;;;25.40;13.00;;;;;;4991051;28;20211;-84
2023/06/24 12:49:23;;;;;;;4.32;3.80;;;25.00;14.20;;;;;;4982791;28;20204;-85
2023/06/24 12:51:50;;;;;;;4.50;4.10;;;24.40;13.80;;;;;;4986652;28;20564;-85
2023/06/24 12:54:17;;;;;;;4.65;4.18;;;24.30;14.50;;;;;;4988316;28;20212;-84
2023/06/24 12:56:43;;;;;;;4.25;3.85;;;24.40;13.90;;;;;;4991623;28;20235;-83
2023/06/24 12:59:12;;;;;;;4.50;4.03;;;24.60;12.80;;;;;;4985358;28;20192;-85
2023/06/24 13:01:39;;;;;;;4.95;4.50;;;24.90;12.70;;;;;;4987891;28;20581;-84
2023/06/24 13:04:06;;;;;;;5.68;4.00;;;25.00;13.30;;;;;;4966784;28;20203;-85
2023/06/24 13:06:34;;;;;;;4.40;4.00;;;24.80;14.10;;;;;;4987450;28;20200;-86
2023/06/24 13:09:01;;;;;;;3.88;3.58;;;24.90;13.90;;;;;;4981505;28;20646;-84
2023/06/24 13:11:28;;;;;;;4.40;4.07;;;25.20;11.50;;;;;;4970753;28;20208;-85
2023/06/24 13:13:55;;;;;;;4.90;4.40;;;25.30;11.40;;;;;;4960926;28;20203;-81
2023/06/24 13:16:23;;;;;;;5.10;4.10;;;25.30;11.90;;;;;;4981901;28;20196;-84
2023/06/24 13:18:51;;;;;;;4.65;4.05;;;25.50;11.00;;;;;;4987382;28;20243;-84
2023/06/24 13:21:17;;;;;;;4.18;3.75;;;25.60;10.00;;;;;;4984465;28;20347;-82
2023/06/24 13:23:46;;;;;;;5.30;3.60;;;25.00;10.40;;;;;;4986877;28;20661;-89
2023/06/24 13:26:13;;;;;;;4.82;4.05;;;24.50;11.70;;;;;;4989892;28;20200;-88
2023/06/24 13:28:40;;;;;;;4.55;4.00;;;24.50;11.10;;;;;;4989875;28;20192;-93
2023/06/24 13:31:07;;;;;;;5.72;4.10;;;24.40;11.50;;;;;;4965007;28;20212;-85
2023/06/24 13:33:36;;;;;;;4.50;3.97;;;24.60;11.40;;;;;;4979714;28;20215;-87
2023/06/24 13:36:03;;;;;;;5.80;3.70;;;24.90;13.30;;;;;;4982743;28;20212;-88
2023/06/24 13:38:30;;;;;;;4.78;4.18;;;25.10;11.70;;;;;;4994867;28;20622;-87
2023/06/24 13:40:57;;;;;;;4.65;3.72;;;24.90;13.80;;;;;;4993860;28;20734;-86
2023/06/24 13:43:23;;;;;;;4.30;3.90;;;24.60;13.90;;;;;;4992426;28;20202;-88
2023/06/24 13:45:52;;;;;;;6.20;4.45;;;24.80;14.10;;;;;;4974079;28;20203;-87
2023/06/24 13:48:19;;;;;;;4.70;3.88;;;24.90;14.10;;;;;;4990275;28;20204;-86
2023/06/24 13:50:47;;;;;;;4.43;4.03;;;25.10;14.20;;;;;;4992537;28;20208;-88
2023/06/24 13:53:14;;;;;;;6.22;4.00;;;25.30;13.50;;;;;;4988728;28;20545;-83
2023/06/24 13:55:41;;;;;;;4.05;3.70;;;25.50;12.30;;;;;;4986645;28;20200;-86
2023/06/24 13:58:09;;;;;;;4.53;4.10;;;25.50;12.40;;;;;;4992411;28;20277;-86
2023/06/24 14:00:35;;;;;;;4.00;3.58;;;25.60;12.50;;;;;;4968023;28;20200;-83
2023/06/24 14:03:02;;;;;;;4.10;3.70;;;25.30;12.20;;;;;;4974263;28;20204;-84
2023/06/24 14:05:29;;;;;;;4.13;3.72;;;24.90;12.80;;;;;;4986895;28;20885;-85
2023/06/24 14:07:58;;;;;;;4.43;3.97;;;24.50;13.90;;;;;;4987856;28;20200;-84
2023/06/24 14:10:25;;;;;;;4.00;3.70;;;24.20;13.70;;;;;;4988046;28;20603;-83
2023/06/24 14:12:52;;;;;;;4.28;3.88;;;24.00;13.50;;;;;;4968683;28;20576;-86
2023/06/24 14:15:19;;;;;;;4.10;3.70;;;23.80;13.40;;;;;;4964890;28;20210;-86
2023/06/24 14:17:45;;;;;;;3.80;3.50;;;23.80;13.40;;;;;;4985233;28;20247;-83
2023/06/24 14:20:13;;;;;;;5.97;3.70;;;24.10;13.60;;;;;;4989067;28;20227;-86
2023/06/24 14:22:40;;;;;;;4.20;3.80;;;24.30;13.20;;;;;;4965299;28;20274;-83
2023/06/24 14:25:09;;;;;;;3.78;3.40;;;24.40;12.00;;;;;;4987008;28;20290;-84
2023/06/24 14:27:36;;;;;;;5.90;3.90;;;24.40;11.80;;;;;;4977018;28;20227;-82
2023/06/24 14:30:04;;;;;;;4.55;4.15;;;24.60;12.40;;;;;;4988997;28;20247;-82
2023/06/24 14:32:31;;;;;;;9.80;5.60;;;24.60;12.60;;;;;;4971809;28;20204;-85
2023/06/24 14:34:58;;;;;;;4.63;3.97;;;24.50;13.10;;;;;;4979055;28;20595;-84
2023/06/24 14:37:25;;;;;;;4.55;3.97;;;24.70;12.50;;;;;;4985049;28;20204;-83
2023/06/24 14:39:52;;;;;;;5.65;3.80;;;24.90;10.00;;;;;;4985503;28;20657;-84
2023/06/24 14:42:20;;;;;;;4.53;3.80;;;25.20;10.30;;;;;;4967825;28;20235;-84
2023/06/24 14:44:47;;;;;;;3.42;3.20;;;25.20;9.70;;;;;;4980518;28;20200;-86
2023/06/24 14:47:14;;;;;;;4.63;3.35;;;25.10;9.80;;;;;;4985979;28;20203;-83
2023/06/24 14:49:40;;;;;;;5.32;3.92;;;25.20;10.40;;;;;;4984653;28;20207;-83
2023/06/24 14:52:07;;;;;;;4.72;3.50;;;25.30;10.30;;;;;;4988198;28;20206;-83
2023/06/24 14:54:34;;;;;;;3.58;3.28;;;25.20;11.40;;;;;;4976910;28;20683;-82
2023/06/24 14:57:01;;;;;;;4.43;4.03;;;25.10;11.30;;;;;;4977478;28;20201;-83
2023/06/24 14:59:29;;;;;;;4.20;3.80;;;24.90;11.90;;;;;;4965249;28;20250;-81
2023/06/24 15:01:56;;;;;;;3.85;3.55;;;24.70;11.90;;;;;;4971392;28;20240;-82
2023/06/24 15:04:23;;;;;;;3.90;3.60;;;24.80;12.80;;;;;;4988166;28;20282;-86
2023/06/24 15:06:50;;;;;;;5.22;3.88;;;24.80;11.70;;;;;;4983749;28;20207;-83
2023/06/24 15:09:17;;;;;;;3.65;3.35;;;24.80;12.90;;;;;;4971961;28;20204;-83
2023/06/24 15:11:44;;;;;;;4.45;4.00;;;24.80;11.00;;;;;;4988499;28;20206;-83
2023/06/24 15:14:11;;;;;;;4.18;3.78;;;24.90;11.50;;;;;;4993733;28;20200;-83
2023/06/24 15:16:39;;;;;;;4.07;3.50;;;24.90;11.40;;;;;;4987738;28;20207;-82
2023/06/24 15:19:06;;;;;;;5.13;3.53;;;24.90;11.50;;;;;;4992153;28;20229;-84
2023/06/24 15:21:33;;;;;;;4.63;3.40;;;24.80;12.00;;;;;;4992467;28;20220;-85
2023/06/24 15:24:00;;;;;;;5.80;3.80;;;24.80;13.40;;;;;;4992412;28;20211;-82
2023/06/24 15:26:27;;;;;;;4.10;3.65;;;24.80;13.50;;;;;;4973234;28;20200;-81
2023/06/24 15:28:54;;;;;;;3.90;3.60;;;24.70;12.00;;;;;;4991957;28;20249;-87
2023/06/24 15:31:21;;;;;;;4.43;3.90;;;24.80;12.40;;;;;;4958675;28;20196;-85
2023/06/24 15:33:49;;;;;;;5.50;3.70;;;24.70;12.70;;;;;;4987910;28;20200;-84
2023/06/24 15:36:17;;;;;;;6.90;6.20;;;24.70;12.90;;;;;;4968427;28;20205;-85
2023/06/24 15:38:44;;;;;;;3.97;3.67;;;24.60;12.20;;;;;;4984007;28;20275;-87
2023/06/24 15:41:11;;;;;;;12.68;10.05;;;24.60;12.40;;;;;;4989053;28;20200;-87
2023/06/24 15:43:37;;;;;;;4.68;3.63;;;24.60;12.70;;;;;;4994152;28;20581;-87
2023/06/24 15:46:05;;;;;;;4.00;3.63;;;24.60;12.00;;;;;;4993822;28;20210;-87
2023/06/24 15:48:31;;;;;;;4.95;3.70;;;24.70;11.80;;;;;;4992493;28;20200;-88
2023/06/24 15:51:00;;;;;;;5.50;3.80;;;24.70;11.10;;;;;;4994005;28;20208;-84
2023/06/24 15:53:28;;;;;;;5.15;3.53;;;24.50;10.80;;;;;;4996234;28;20200;-86
2023/06/24 15:55:55;;;;;;;3.88;3.58;;;24.50;11.20;;;;;;4986383;28;20239;-84
2023/06/24 15:58:22;;;;;;;5.43;3.63;;;24.40;12.00;;;;;;4987138;28;20599;-87
2023/06/24 16:00:50;;;;;;;3.90;3.50;;;24.40;12.10;;;;;;4991082;28;20208;-87
2023/06/24 16:03:17;;;;;;;4.00;3.33;;;24.50;10.90;;;;;;4954370;28;20223;-86
2023/06/24 16:05:45;;;;;;;3.70;3.40;;;24.50;11.50;;;;;;4990894;28;20215;-82
2023/06/24 16:08:13;;;;;;;3.83;3.45;;;24.40;11.70;;;;;;4990784;28;20227;-81
2023/06/24 16:10:40;;;;;;;3.50;3.20;;;24.20;11.50;;;;;;4990919;28;20196;-81
2023/06/24 16:13:06;;;;;;;4.70;3.70;;;24.10;11.20;;;;;;4987595;28;20216;-80
2023/06/24 16:15:33;;;;;;;4.07;3.67;;;24.00;11.30;;;;;;4986654;28;20196;-83
2023/06/24 16:18:00;;;;;;;3.80;3.50;;;24.00;10.60;;;;;;4988648;28;20224;-85
2023/06/24 16:20:27;;;;;;;3.70;3.40;;;23.90;11.20;;;;;;4992558;28;20575;-83
2023/06/24 16:22:54;;;;;;;4.10;3.45;;;23.90;11.40;;;;;;4987812;28;20220;-89
2023/06/24 16:25:22;;;;;;;4.07;3.67;;;23.90;12.60;;;;;;4985422;28;20200;-88
2023/06/24 16:27:49;;;;;;;6.90;3.70;;;23.90;12.70;;;;;;4985930;28;20736;-82
2023/06/24 16:30:16;;;;;;;5.13;3.72;;;23.80;13.10;;;;;;4982772;28;20220;-83
2023/06/24 16:32:43;;;;;;;4.15;3.63;;;23.70;13.40;;;;;;4986831;28;20202;-82
2023/06/24 16:35:10;;;;;;;3.83;3.33;;;23.70;13.30;;;;;;4987566;28;20212;-82
2023/06/24 16:37:37;;;;;;;3.78;3.42;;;23.60;12.90;;;;;;4990395;28;20196;-84
2023/06/24 16:40:05;;;;;;;3.97;3.60;;;23.40;13.20;;;;;;4986842;28;20342;-83
2023/06/24 16:42:33;;;;;;;4.30;3.90;;;23.40;14.00;;;;;;4984697;28;20231;-79
2023/06/24 16:45:00;;;;;;;3.90;3.60;;;23.50;13.30;;;;;;4984045;28;20593;-83
2023/06/24 16:47:27;;;;;;;4.90;3.60;;;23.60;13.30;;;;;;4982814;28;20571;-81
2023/06/24 16:49:55;;;;;;;3.85;3.55;;;23.60;13.30;;;;;;4985001;28;20223;-83
2023/06/24 16:52:21;;;;;;;4.63;3.88;;;23.60;13.30;;;;;;4985216;28;20216;-82
2023/06/24 16:54:48;;;;;;;4.50;3.40;;;23.50;13.20;;;;;;4985127;28;20197;-83
2023/06/24 16:57:15;;;;;;;4.32;3.92;;;23.50;13.20;;;;;;4982010;28;20649;-80
2023/06/24 16:59:43;;;;;;;5.53;3.90;;;23.50;13.20;;;;;;4991124;28;20201;-83
2023/06/24 17:02:10;;;;;;;3.95;3.55;;;23.40;13.20;;;;;;4986203;28;20220;-83
2023/06/24 17:04:37;;;;;;;5.07;3.90;;;23.30;13.10;;;;;;4990047;28;20211;-80
2023/06/24 17:07:04;;;;;;;4.20;3.80;;;23.20;13.00;;;;;;4987317;28;20200;-82
2023/06/24 17:09:31;;;;;;;4.10;3.50;;;23.20;13.00;;;;;;4982058;28;20200;-80
2023/06/24 17:11:58;;;;;;;6.57;3.80;;;23.10;14.30;;;;;;4989886;28;20208;-81
2023/06/24 17:14:25;;;;;;;5.25;4.18;;;23.10;13.00;;;;;;4979051;28;20209;-83
2023/06/24 17:16:53;;;;;;;7.32;4.32;;;23.10;13.90;;;;;;4987318;28;20212;-80
2023/06/24 17:19:20;;;;;;;4.20;3.80;;;23.10;14.30;;;;;;4986919;28;20231;-80
2023/06/24 17:21:47;;;;;;;4.05;3.65;;;23.00;13.50;;;;;;4982899;28;20658;-82
2023/06/24 17:24:14;;;;;;;3.60;3.30;;;23.10;13.30;;;;;;4989543;28;20761;-81
2023/06/24 17:26:41;;;;;;;4.13;3.70;;;23.10;13.60;;;;;;4985664;28;20200;-83
2023/06/24 17:29:08;;;;;;;4.07;3.72;;;23.10;13.50;;;;;;4987543;28;20215;-83
2023/06/24 17:31:35;;;;;;;4.45;4.00;;;23.20;13.10;;;;;;4989898;28;20558;-82
2023/06/24 17:34:03;;;;;;;4.85;4.15;;;23.10;13.50;;;;;;4986993;28;20223;-80
2023/06/24 17:36:30;;;;;;;4.10;3.70;;;23.00;14.00;;;;;;4988643;28;20212;-81
2023/06/24 17:38:57;;;;;;;4.82;3.70;;;23.00;13.40;;;;;;4987588;28;20617;-83
2023/06/24 17:41:24;;;;;;;4.78;3.58;;;23.00;13.50;;;;;;4947240;28;20201;-81
2023/06/24 17:43:51;;;;;;;3.97;3.65;;;22.90;14.30;;;;;;4982013;28;20224;-84
2023/06/24 17:46:18;;;;;;;5.20;3.70;;;22.90;14.20;;;;;;4992200;28;20596;-81
2023/06/24 17:48:45;;;;;;;4.32;3.92;;;22.80;13.00;;;;;;4990518;28;20207;-82
2023/06/24 17:51:15;;;;;;;4.00;3.70;;;22.80;13.20;;;;;;4984431;28;20204;-78
2023/06/24 17:53:42;;;;;;;4.13;3.65;;;22.80;13.90;;;;;;4987277;28;20208;-82
2023/06/24 17:56:09;;;;;;;4.22;3.85;;;22.70;13.70;;;;;;4983099;28;20203;-83
2023/06/24 17:58:36;;;;;;;7.10;4.40;;;22.60;14.40;;;;;;4983033;28;20208;-82
2023/06/24 18:01:03;;;;;;;5.13;3.63;;;22.50;14.90;;;;;;4988669;28;20204;-85
2023/06/24 18:03:30;;;;;;;4.05;3.72;;;22.50;14.90;;;;;;4986353;28;20231;-88
2023/06/24 18:05:57;;;;;;;4.20;3.78;;;22.40;15.00;;;;;;4967635;28;20207;-85
2023/06/24 18:08:25;;;;;;;5.10;3.78;;;22.40;15.70;;;;;;4985680;28;20572;-84
2023/06/24 18:10:52;;;;;;;4.30;3.72;;;22.30;16.20;;;;;;4966832;28;20291;-86
2023/06/24 18:13:19;;;;;;;5.63;3.85;;;22.20;16.20;;;;;;4983548;28;20207;-88
2023/06/24 18:15:47;;;;;;;3.80;3.45;;;22.30;15.20;;;;;;4981454;28;20287;-84
2023/06/24 18:18:14;;;;;;;4.47;3.83;;;22.20;15.20;;;;;;4979888;28;20220;-85
2023/06/24 18:20:41;;;;;;;4.32;3.70;;;22.20;15.10;;;;;;4984582;28;20747;-86